sensor_id;sensor_type;location;lat;lon;timestamp;P1;durP1;ratioP1;P2;durP2;ratioP2
7076;SDS011;3579;48.956;9.154;2023-02-28T00:01:25;1.60;;;1.37;;
7076;SDS011;3579;48.956;9.154;2023-02-28T00:03:51;1.83;;;1.23;;
7076;SDS011;3579;48.956;9.154;2023-02-28T00:06:17;1.13;;;1.03;;
7076;SDS011;3579;48.956;9.154;2023-02-28T00:08:43;1.37;;;1.10;;
7076;SDS011;3579;48.956;9.154;2023-02-28T00:11:10;1.53;;;1.40;;
7076;SDS011;3579;48.956;9.154;2023-02-28T00:13:42;1.67;;;1.20;;
7076;SDS011;3579;48.956;9.154;2023-02-28T00:16:13;1.20;;;1.10;;
7076;SDS011;3579;48.956;9.154;2023-02-28T00:18:41;1.30;;;1.13;;
7076;SDS011;3579;48.956;9.154;2023-02-28T00:21:07;1.40;;;1.20;;
7076;SDS011;3579;48.956;9.154;2023-02-28T00:23:34;1.37;;;1.10;;
7076;SDS011;3579;48.956;9.154;2023-02-28T00:26:00;1.67;;;1.30;;
7076;SDS011;3579;48.956;9.154;2023-02-28T00:28:27;1.33;;;1.10;;
7076;SDS011;3579;48.956;9.154;2023-02-28T00:30:53;2.33;;;1.20;;
7076;SDS011;3579;48.956;9.154;2023-02-28T00:33:19;1.43;;;1.30;;
7076;SDS011;3579;48.956;9.154;2023-02-28T00:35:45;1.60;;;1.20;;
7076;SDS011;3579;48.956;9.154;2023-02-28T00:38:12;1.33;;;1.20;;
7076;SDS011;3579;48.956;9.154;2023-02-28T00:40:39;1.30;;;1.20;;
7076;SDS011;3579;48.956;9.154;2023-02-28T00:43:05;1.53;;;1.27;;
7076;SDS011;3579;48.956;9.154;2023-02-28T00:45:31;1.50;;;1.20;;
7076;SDS011;3579;48.956;9.154;2023-02-28T00:47:57;1.33;;;1.10;;
7076;SDS011;3579;48.956;9.154;2023-02-28T00:50:23;1.97;;;1.20;;
7076;SDS011;3579;48.956;9.154;2023-02-28T00:52:49;1.20;;;1.10;;
7076;SDS011;3579;48.956;9.154;2023-02-28T00:55:15;1.63;;;1.20;;
7076;SDS011;3579;48.956;9.154;2023-02-28T00:57:41;1.33;;;1.10;;
7076;SDS011;3579;48.956;9.154;2023-02-28T01:00:08;1.93;;;1.33;;
7076;SDS011;3579;48.956;9.154;2023-02-28T01:02:35;2.00;;;1.13;;
7076;SDS011;3579;48.956;9.154;2023-02-28T01:05:01;1.17;;;1.07;;
7076;SDS011;3579;48.956;9.154;2023-02-28T01:07:27;1.93;;;1.30;;
7076;SDS011;3579;48.956;9.154;2023-02-28T01:09:53;1.77;;;1.20;;
7076;SDS011;3579;48.956;9.154;2023-02-28T01:12:20;2.00;;;1.20;;
7076;SDS011;3579;48.956;9.154;2023-02-28T01:14:46;1.20;;;1.10;;
7076;SDS011;3579;48.956;9.154;2023-02-28T01:17:12;1.40;;;1.20;;
7076;SDS011;3579;48.956;9.154;2023-02-28T01:19:38;1.73;;;1.20;;
7076;SDS011;3579;48.956;9.154;2023-02-28T01:22:04;1.60;;;1.13;;
7076;SDS011;3579;48.956;9.154;2023-02-28T01:24:31;1.10;;;0.90;;
7076;SDS011;3579;48.956;9.154;2023-02-28T01:26:57;1.93;;;1.40;;
7076;SDS011;3579;48.956;9.154;2023-02-28T01:29:23;1.20;;;1.10;;
7076;SDS011;3579;48.956;9.154;2023-02-28T01:31:50;2.13;;;1.50;;
7076;SDS011;3579;48.956;9.154;2023-02-28T01:34:16;1.40;;;1.10;;
7076;SDS011;3579;48.956;9.154;2023-02-28T01:36:44;1.67;;;1.20;;
7076;SDS011;3579;48.956;9.154;2023-02-28T01:39:11;1.23;;;1.10;;
7076;SDS011;3579;48.956;9.154;2023-02-28T01:41:38;1.30;;;1.20;;
7076;SDS011;3579;48.956;9.154;2023-02-28T01:44:54;1.50;;;1.23;;
7076;SDS011;3579;48.956;9.154;2023-02-28T01:47:09;1.60;;;1.20;;
7076;SDS011;3579;48.956;9.154;2023-02-28T01:49:35;1.20;;;1.10;;
7076;SDS011;3579;48.956;9.154;2023-02-28T01:52:02;2.27;;;1.40;;
7076;SDS011;3579;48.956;9.154;2023-02-28T01:54:31;1.20;;;1.10;;
7076;SDS011;3579;48.956;9.154;2023-02-28T01:57:02;1.67;;;1.30;;
7076;SDS011;3579;48.956;9.154;2023-02-28T01:59:40;1.50;;;1.20;;
7076;SDS011;3579;48.956;9.154;2023-02-28T02:02:14;1.43;;;1.30;;
7076;SDS011;3579;48.956;9.154;2023-02-28T02:04:46;1.30;;;1.20;;
7076;SDS011;3579;48.956;9.154;2023-02-28T02:07:20;1.30;;;1.20;;
7076;SDS011;3579;48.956;9.154;2023-02-28T02:09:48;1.30;;;1.10;;
7076;SDS011;3579;48.956;9.154;2023-02-28T02:12:19;1.60;;;1.20;;
7076;SDS011;3579;48.956;9.154;2023-02-28T02:14:54;1.50;;;1.30;;
7076;SDS011;3579;48.956;9.154;2023-02-28T02:17:36;1.30;;;1.20;;
7076;SDS011;3579;48.956;9.154;2023-02-28T02:20:13;1.63;;;1.20;;
7076;SDS011;3579;48.956;9.154;2023-02-28T02:25:37;1.20;;;1.10;;
7076;SDS011;3579;48.956;9.154;2023-02-28T02:31:27;1.40;;;1.03;;
7076;SDS011;3579;48.956;9.154;2023-02-28T02:39:40;1.50;;;1.27;;
7076;SDS011;3579;48.956;9.154;2023-02-28T02:42:28;1.70;;;1.20;;
7076;SDS011;3579;48.956;9.154;2023-02-28T02:45:09;1.30;;;1.20;;
7076;SDS011;3579;48.956;9.154;2023-02-28T02:47:41;1.30;;;1.20;;
7076;SDS011;3579;48.956;9.154;2023-02-28T02:50:11;1.43;;;1.23;;
7076;SDS011;3579;48.956;9.154;2023-02-28T02:52:42;2.27;;;1.40;;
7076;SDS011;3579;48.956;9.154;2023-02-28T02:55:12;1.40;;;1.20;;
7076;SDS011;3579;48.956;9.154;2023-02-28T02:57:42;1.73;;;1.27;;
7076;SDS011;3579;48.956;9.154;2023-02-28T03:00:15;2.10;;;1.60;;
7076;SDS011;3579;48.956;9.154;2023-02-28T03:02:44;1.50;;;1.27;;
7076;SDS011;3579;48.956;9.154;2023-02-28T03:05:15;1.27;;;1.10;;
7076;SDS011;3579;48.956;9.154;2023-02-28T03:07:46;1.83;;;1.50;;
7076;SDS011;3579;48.956;9.154;2023-02-28T03:10:25;1.37;;;1.20;;
7076;SDS011;3579;48.956;9.154;2023-02-28T03:12:55;1.57;;;1.40;;
7076;SDS011;3579;48.956;9.154;2023-02-28T03:15:31;1.60;;;1.33;;
7076;SDS011;3579;48.956;9.154;2023-02-28T03:18:08;1.87;;;1.30;;
7076;SDS011;3579;48.956;9.154;2023-02-28T03:20:54;1.73;;;1.37;;
7076;SDS011;3579;48.956;9.154;2023-02-28T03:23:45;1.63;;;1.30;;
7076;SDS011;3579;48.956;9.154;2023-02-28T03:26:21;1.50;;;1.37;;
7076;SDS011;3579;48.956;9.154;2023-02-28T03:28:52;1.40;;;1.13;;
7076;SDS011;3579;48.956;9.154;2023-02-28T03:34:26;1.63;;;1.40;;
7076;SDS011;3579;48.956;9.154;2023-02-28T03:36:57;1.30;;;1.20;;
7076;SDS011;3579;48.956;9.154;2023-02-28T03:39:37;1.23;;;1.13;;
7076;SDS011;3579;48.956;9.154;2023-02-28T03:42:18;1.60;;;1.30;;
7076;SDS011;3579;48.956;9.154;2023-02-28T03:49:58;1.93;;;1.50;;
7076;SDS011;3579;48.956;9.154;2023-02-28T03:52:38;1.63;;;1.17;;
7076;SDS011;3579;48.956;9.154;2023-02-28T03:55:12;1.30;;;1.20;;
7076;SDS011;3579;48.956;9.154;2023-02-28T04:02:44;1.73;;;1.23;;
7076;SDS011;3579;48.956;9.154;2023-02-28T04:05:10;1.83;;;1.40;;
7076;SDS011;3579;48.956;9.154;2023-02-28T04:07:36;1.90;;;1.30;;
7076;SDS011;3579;48.956;9.154;2023-02-28T04:10:03;1.93;;;1.40;;
7076;SDS011;3579;48.956;9.154;2023-02-28T04:12:30;1.27;;;1.10;;
7076;SDS011;3579;48.956;9.154;2023-02-28T04:14:56;1.40;;;1.20;;
7076;SDS011;3579;48.956;9.154;2023-02-28T04:17:22;1.40;;;1.20;;
7076;SDS011;3579;48.956;9.154;2023-02-28T04:19:48;1.47;;;1.30;;
7076;SDS011;3579;48.956;9.154;2023-02-28T04:22:15;2.17;;;1.37;;
7076;SDS011;3579;48.956;9.154;2023-02-28T04:24:42;1.50;;;1.20;;
7076;SDS011;3579;48.956;9.154;2023-02-28T04:27:08;1.57;;;1.27;;
7076;SDS011;3579;48.956;9.154;2023-02-28T04:29:35;1.50;;;1.20;;
7076;SDS011;3579;48.956;9.154;2023-02-28T04:32:01;1.40;;;1.20;;
7076;SDS011;3579;48.956;9.154;2023-02-28T04:34:28;1.90;;;1.40;;
7076;SDS011;3579;48.956;9.154;2023-02-28T04:36:56;1.40;;;1.30;;
7076;SDS011;3579;48.956;9.154;2023-02-28T04:39:23;1.90;;;1.40;;
7076;SDS011;3579;48.956;9.154;2023-02-28T04:41:50;1.30;;;1.20;;
7076;SDS011;3579;48.956;9.154;2023-02-28T04:44:16;1.90;;;1.40;;
7076;SDS011;3579;48.956;9.154;2023-02-28T04:46:43;1.30;;;1.20;;
7076;SDS011;3579;48.956;9.154;2023-02-28T04:49:12;1.43;;;1.27;;
7076;SDS011;3579;48.956;9.154;2023-02-28T04:51:38;1.50;;;1.30;;
7076;SDS011;3579;48.956;9.154;2023-02-28T04:54:05;1.43;;;1.30;;
7076;SDS011;3579;48.956;9.154;2023-02-28T04:56:31;1.90;;;1.30;;
7076;SDS011;3579;48.956;9.154;2023-02-28T04:58:57;1.43;;;1.30;;
7076;SDS011;3579;48.956;9.154;2023-02-28T05:01:30;1.60;;;1.20;;
7076;SDS011;3579;48.956;9.154;2023-02-28T05:03:58;1.67;;;1.33;;
7076;SDS011;3579;48.956;9.154;2023-02-28T05:06:27;1.60;;;1.47;;
7076;SDS011;3579;48.956;9.154;2023-02-28T05:08:55;1.47;;;1.37;;
7076;SDS011;3579;48.956;9.154;2023-02-28T05:13:51;1.60;;;1.20;;
7076;SDS011;3579;48.956;9.154;2023-02-28T05:16:18;2.07;;;1.50;;
7076;SDS011;3579;48.956;9.154;2023-02-28T05:18:44;1.40;;;1.20;;
7076;SDS011;3579;48.956;9.154;2023-02-28T05:21:23;1.43;;;1.23;;
7076;SDS011;3579;48.956;9.154;2023-02-28T05:23:58;2.03;;;1.30;;
7076;SDS011;3579;48.956;9.154;2023-02-28T05:26:29;2.33;;;1.53;;
7076;SDS011;3579;48.956;9.154;2023-02-28T05:28:56;1.70;;;1.30;;
7076;SDS011;3579;48.956;9.154;2023-02-28T05:31:22;1.80;;;1.40;;
7076;SDS011;3579;48.956;9.154;2023-02-28T05:33:49;1.53;;;1.23;;
7076;SDS011;3579;48.956;9.154;2023-02-28T05:36:15;2.37;;;1.80;;
7076;SDS011;3579;48.956;9.154;2023-02-28T05:38:41;2.10;;;1.50;;
7076;SDS011;3579;48.956;9.154;2023-02-28T05:41:07;1.70;;;1.47;;
7076;SDS011;3579;48.956;9.154;2023-02-28T05:43:35;2.13;;;1.70;;
7076;SDS011;3579;48.956;9.154;2023-02-28T05:46:03;2.50;;;1.60;;
7076;SDS011;3579;48.956;9.154;2023-02-28T05:48:33;2.47;;;1.40;;
7076;SDS011;3579;48.956;9.154;2023-02-28T05:51:01;1.97;;;1.53;;
7076;SDS011;3579;48.956;9.154;2023-02-28T05:53:28;1.77;;;1.47;;
7076;SDS011;3579;48.956;9.154;2023-02-28T05:55:54;1.90;;;1.40;;
7076;SDS011;3579;48.956;9.154;2023-02-28T05:58:20;2.00;;;1.50;;
7076;SDS011;3579;48.956;9.154;2023-02-28T06:00:47;1.63;;;1.40;;
7076;SDS011;3579;48.956;9.154;2023-02-28T06:03:13;2.07;;;1.60;;
7076;SDS011;3579;48.956;9.154;2023-02-28T06:05:39;1.77;;;1.40;;
7076;SDS011;3579;48.956;9.154;2023-02-28T06:08:05;1.70;;;1.47;;
7076;SDS011;3579;48.956;9.154;2023-02-28T06:10:35;1.87;;;1.50;;
7076;SDS011;3579;48.956;9.154;2023-02-28T06:13:05;2.00;;;1.60;;
7076;SDS011;3579;48.956;9.154;2023-02-28T06:15:31;1.93;;;1.60;;
7076;SDS011;3579;48.956;9.154;2023-02-28T06:17:57;1.87;;;1.47;;
7076;SDS011;3579;48.956;9.154;2023-02-28T06:20:24;1.67;;;1.50;;
7076;SDS011;3579;48.956;9.154;2023-02-28T06:22:55;2.00;;;1.80;;
7076;SDS011;3579;48.956;9.154;2023-02-28T06:25:24;2.10;;;1.57;;
7076;SDS011;3579;48.956;9.154;2023-02-28T06:27:51;1.90;;;1.57;;
7076;SDS011;3579;48.956;9.154;2023-02-28T06:30:17;2.67;;;1.57;;
7076;SDS011;3579;48.956;9.154;2023-02-28T06:32:43;1.90;;;1.47;;
7076;SDS011;3579;48.956;9.154;2023-02-28T06:35:09;2.80;;;1.93;;
7076;SDS011;3579;48.956;9.154;2023-02-28T06:37:35;2.57;;;1.70;;
7076;SDS011;3579;48.956;9.154;2023-02-28T06:40:02;1.93;;;1.50;;
7076;SDS011;3579;48.956;9.154;2023-02-28T06:42:28;2.77;;;1.80;;
7076;SDS011;3579;48.956;9.154;2023-02-28T06:44:56;3.70;;;1.73;;
7076;SDS011;3579;48.956;9.154;2023-02-28T06:47:22;3.87;;;1.80;;
7076;SDS011;3579;48.956;9.154;2023-02-28T06:49:48;2.10;;;1.70;;
7076;SDS011;3579;48.956;9.154;2023-02-28T06:52:14;3.83;;;1.87;;
7076;SDS011;3579;48.956;9.154;2023-02-28T06:54:40;3.73;;;1.70;;
7076;SDS011;3579;48.956;9.154;2023-02-28T06:57:07;2.47;;;1.77;;
7076;SDS011;3579;48.956;9.154;2023-02-28T06:59:33;2.30;;;1.80;;
7076;SDS011;3579;48.956;9.154;2023-02-28T07:02:00;2.30;;;1.87;;
7076;SDS011;3579;48.956;9.154;2023-02-28T07:04:27;2.00;;;1.80;;
7076;SDS011;3579;48.956;9.154;2023-02-28T07:06:54;2.27;;;1.70;;
7076;SDS011;3579;48.956;9.154;2023-02-28T07:09:22;2.70;;;1.90;;
7076;SDS011;3579;48.956;9.154;2023-02-28T07:11:48;4.00;;;1.90;;
7076;SDS011;3579;48.956;9.154;2023-02-28T07:14:14;2.40;;;1.93;;
7076;SDS011;3579;48.956;9.154;2023-02-28T07:16:40;3.53;;;1.90;;
7076;SDS011;3579;48.956;9.154;2023-02-28T07:19:07;2.30;;;1.80;;
7076;SDS011;3579;48.956;9.154;2023-02-28T07:21:33;3.93;;;1.80;;
7076;SDS011;3579;48.956;9.154;2023-02-28T07:23:59;3.53;;;2.27;;
7076;SDS011;3579;48.956;9.154;2023-02-28T07:26:25;3.20;;;1.93;;
7076;SDS011;3579;48.956;9.154;2023-02-28T07:28:51;2.50;;;1.83;;
7076;SDS011;3579;48.956;9.154;2023-02-28T07:31:17;4.87;;;2.03;;
7076;SDS011;3579;48.956;9.154;2023-02-28T07:33:44;3.37;;;2.03;;
7076;SDS011;3579;48.956;9.154;2023-02-28T07:36:12;3.17;;;2.30;;
7076;SDS011;3579;48.956;9.154;2023-02-28T07:38:44;3.47;;;2.00;;
7076;SDS011;3579;48.956;9.154;2023-02-28T07:41:14;2.80;;;1.80;;
7076;SDS011;3579;48.956;9.154;2023-02-28T07:43:42;3.27;;;2.10;;
7076;SDS011;3579;48.956;9.154;2023-02-28T07:46:10;2.70;;;1.90;;
7076;SDS011;3579;48.956;9.154;2023-02-28T07:48:40;3.00;;;2.00;;
7076;SDS011;3579;48.956;9.154;2023-02-28T07:51:07;2.90;;;2.10;;
7076;SDS011;3579;48.956;9.154;2023-02-28T07:53:33;2.43;;;1.97;;
7076;SDS011;3579;48.956;9.154;2023-02-28T07:56:00;2.80;;;2.30;;
7076;SDS011;3579;48.956;9.154;2023-02-28T07:58:28;3.27;;;2.30;;
7076;SDS011;3579;48.956;9.154;2023-02-28T08:00:55;4.83;;;2.30;;
7076;SDS011;3579;48.956;9.154;2023-02-28T08:03:21;3.53;;;2.20;;
7076;SDS011;3579;48.956;9.154;2023-02-28T08:05:49;4.23;;;2.27;;
7076;SDS011;3579;48.956;9.154;2023-02-28T08:08:16;2.80;;;2.10;;
7076;SDS011;3579;48.956;9.154;2023-02-28T08:10:43;3.40;;;2.07;;
7076;SDS011;3579;48.956;9.154;2023-02-28T08:13:09;2.30;;;1.80;;
7076;SDS011;3579;48.956;9.154;2023-02-28T08:15:35;5.63;;;2.87;;
7076;SDS011;3579;48.956;9.154;2023-02-28T08:18:02;2.57;;;2.10;;
7076;SDS011;3579;48.956;9.154;2023-02-28T08:20:28;2.93;;;2.47;;
7076;SDS011;3579;48.956;9.154;2023-02-28T08:22:55;4.03;;;2.40;;
7076;SDS011;3579;48.956;9.154;2023-02-28T08:25:21;3.23;;;2.23;;
7076;SDS011;3579;48.956;9.154;2023-02-28T08:27:49;5.07;;;2.20;;
7076;SDS011;3579;48.956;9.154;2023-02-28T08:30:17;5.47;;;2.27;;
7076;SDS011;3579;48.956;9.154;2023-02-28T08:32:44;2.33;;;2.00;;
7076;SDS011;3579;48.956;9.154;2023-02-28T08:35:10;4.10;;;2.20;;
7076;SDS011;3579;48.956;9.154;2023-02-28T08:37:36;2.60;;;2.10;;
7076;SDS011;3579;48.956;9.154;2023-02-28T08:40:03;6.27;;;2.50;;
7076;SDS011;3579;48.956;9.154;2023-02-28T08:42:31;3.20;;;2.37;;
7076;SDS011;3579;48.956;9.154;2023-02-28T08:44:58;3.43;;;2.30;;
7076;SDS011;3579;48.956;9.154;2023-02-28T08:47:24;4.47;;;2.60;;
7076;SDS011;3579;48.956;9.154;2023-02-28T08:49:50;3.47;;;2.40;;
7076;SDS011;3579;48.956;9.154;2023-02-28T08:52:17;5.87;;;2.10;;
7076;SDS011;3579;48.956;9.154;2023-02-28T08:54:43;3.67;;;2.33;;
7076;SDS011;3579;48.956;9.154;2023-02-28T08:57:09;4.20;;;2.53;;
7076;SDS011;3579;48.956;9.154;2023-02-28T08:59:35;4.83;;;2.40;;
7076;SDS011;3579;48.956;9.154;2023-02-28T09:02:02;3.10;;;2.20;;
7076;SDS011;3579;48.956;9.154;2023-02-28T09:04:29;4.93;;;2.50;;
7076;SDS011;3579;48.956;9.154;2023-02-28T09:06:56;8.50;;;2.70;;
7076;SDS011;3579;48.956;9.154;2023-02-28T09:09:22;2.73;;;2.23;;
7076;SDS011;3579;48.956;9.154;2023-02-28T09:11:48;7.00;;;2.50;;
7076;SDS011;3579;48.956;9.154;2023-02-28T09:14:15;4.63;;;2.40;;
7076;SDS011;3579;48.956;9.154;2023-02-28T09:16:42;4.07;;;2.30;;
7076;SDS011;3579;48.956;9.154;2023-02-28T09:19:12;3.70;;;2.50;;
7076;SDS011;3579;48.956;9.154;2023-02-28T09:21:39;4.27;;;2.40;;
7076;SDS011;3579;48.956;9.154;2023-02-28T09:24:05;3.50;;;2.43;;
7076;SDS011;3579;48.956;9.154;2023-02-28T09:26:33;5.53;;;2.67;;
7076;SDS011;3579;48.956;9.154;2023-02-28T09:28:59;5.97;;;2.80;;
7076;SDS011;3579;48.956;9.154;2023-02-28T09:31:28;3.70;;;2.67;;
7076;SDS011;3579;48.956;9.154;2023-02-28T09:33:55;4.47;;;2.20;;
7076;SDS011;3579;48.956;9.154;2023-02-28T09:36:23;3.27;;;2.30;;
7076;SDS011;3579;48.956;9.154;2023-02-28T09:38:51;5.33;;;2.27;;
7076;SDS011;3579;48.956;9.154;2023-02-28T09:41:22;4.03;;;2.60;;
7076;SDS011;3579;48.956;9.154;2023-02-28T09:43:55;3.73;;;2.70;;
7076;SDS011;3579;48.956;9.154;2023-02-28T09:46:33;3.87;;;2.50;;
7076;SDS011;3579;48.956;9.154;2023-02-28T09:49:30;3.57;;;2.43;;
7076;SDS011;3579;48.956;9.154;2023-02-28T09:52:08;5.13;;;2.60;;
7076;SDS011;3579;48.956;9.154;2023-02-28T09:54:44;5.03;;;2.43;;
7076;SDS011;3579;48.956;9.154;2023-02-28T09:57:19;4.53;;;2.50;;
7076;SDS011;3579;48.956;9.154;2023-02-28T10:05:28;3.60;;;2.40;;
7076;SDS011;3579;48.956;9.154;2023-02-28T10:08:10;5.60;;;2.60;;
7076;SDS011;3579;48.956;9.154;2023-02-28T10:10:45;3.47;;;2.40;;
7076;SDS011;3579;48.956;9.154;2023-02-28T10:16:06;3.60;;;2.67;;
7076;SDS011;3579;48.956;9.154;2023-02-28T10:18:44;3.77;;;2.37;;
7076;SDS011;3579;48.956;9.154;2023-02-28T10:21:47;4.33;;;2.60;;
7076;SDS011;3579;48.956;9.154;2023-02-28T10:24:33;3.10;;;2.30;;
7076;SDS011;3579;48.956;9.154;2023-02-28T10:27:12;5.40;;;2.63;;
7076;SDS011;3579;48.956;9.154;2023-02-28T10:29:42;4.07;;;3.17;;
7076;SDS011;3579;48.956;9.154;2023-02-28T10:32:11;4.83;;;2.63;;
7076;SDS011;3579;48.956;9.154;2023-02-28T10:34:42;3.60;;;2.60;;
7076;SDS011;3579;48.956;9.154;2023-02-28T10:37:10;4.60;;;2.57;;
7076;SDS011;3579;48.956;9.154;2023-02-28T10:39:45;6.07;;;2.40;;
7076;SDS011;3579;48.956;9.154;2023-02-28T10:42:23;3.47;;;2.67;;
7076;SDS011;3579;48.956;9.154;2023-02-28T10:47:57;3.57;;;2.40;;
7076;SDS011;3579;48.956;9.154;2023-02-28T10:53:05;7.23;;;2.67;;
7076;SDS011;3579;48.956;9.154;2023-02-28T10:58:44;3.40;;;2.57;;
7076;SDS011;3579;48.956;9.154;2023-02-28T11:09:53;4.85;;;2.50;;
7076;SDS011;3579;48.956;9.154;2023-02-28T11:14:53;8.13;;;2.70;;
7076;SDS011;3579;48.956;9.154;2023-02-28T11:17:26;2.97;;;2.10;;
7076;SDS011;3579;48.956;9.154;2023-02-28T11:20:02;3.83;;;2.63;;
7076;SDS011;3579;48.956;9.154;2023-02-28T11:22:35;3.67;;;2.53;;
7076;SDS011;3579;48.956;9.154;2023-02-28T11:25:08;2.93;;;2.60;;
7076;SDS011;3579;48.956;9.154;2023-02-28T11:27:44;3.40;;;2.60;;
7076;SDS011;3579;48.956;9.154;2023-02-28T11:36:02;5.00;;;2.60;;
7076;SDS011;3579;48.956;9.154;2023-02-28T11:38:35;4.47;;;2.20;;
7076;SDS011;3579;48.956;9.154;2023-02-28T11:41:16;3.58;;;2.45;;
7076;SDS011;3579;48.956;9.154;2023-02-28T11:46:47;3.97;;;2.30;;
7076;SDS011;3579;48.956;9.154;2023-02-28T11:54:28;5.47;;;2.63;;
7076;SDS011;3579;48.956;9.154;2023-02-28T11:57:20;3.30;;;2.40;;
7076;SDS011;3579;48.956;9.154;2023-02-28T12:07:33;3.03;;;2.27;;
7076;SDS011;3579;48.956;9.154;2023-02-28T12:15:42;4.37;;;2.77;;
7076;SDS011;3579;48.956;9.154;2023-02-28T12:27:20;5.37;;;2.57;;
7076;SDS011;3579;48.956;9.154;2023-02-28T12:32:33;5.00;;;2.37;;
7076;SDS011;3579;48.956;9.154;2023-02-28T12:37:41;6.37;;;2.93;;
7076;SDS011;3579;48.956;9.154;2023-02-28T12:40:13;3.10;;;2.30;;
7076;SDS011;3579;48.956;9.154;2023-02-28T12:42:46;4.43;;;2.70;;
7076;SDS011;3579;48.956;9.154;2023-02-28T12:45:24;3.07;;;2.43;;
7076;SDS011;3579;48.956;9.154;2023-02-28T12:48:00;5.37;;;2.63;;
7076;SDS011;3579;48.956;9.154;2023-02-28T12:50:28;5.07;;;2.40;;
7076;SDS011;3579;48.956;9.154;2023-02-28T12:55:41;3.37;;;2.40;;
7076;SDS011;3579;48.956;9.154;2023-02-28T13:01:23;4.27;;;2.43;;
7076;SDS011;3579;48.956;9.154;2023-02-28T13:09:38;3.57;;;2.40;;
7076;SDS011;3579;48.956;9.154;2023-02-28T13:12:12;3.20;;;2.73;;
7076;SDS011;3579;48.956;9.154;2023-02-28T13:14:40;5.57;;;2.70;;
7076;SDS011;3579;48.956;9.154;2023-02-28T13:19:35;6.97;;;2.73;;
7076;SDS011;3579;48.956;9.154;2023-02-28T13:22:15;3.63;;;2.60;;
7076;SDS011;3579;48.956;9.154;2023-02-28T13:27:35;4.43;;;2.53;;
7076;SDS011;3579;48.956;9.154;2023-02-28T13:33:22;9.27;;;2.60;;
7076;SDS011;3579;48.956;9.154;2023-02-28T13:36:10;4.23;;;2.83;;
7076;SDS011;3579;48.956;9.154;2023-02-28T13:38:43;3.10;;;2.50;;
7076;SDS011;3579;48.956;9.154;2023-02-28T13:46:32;3.23;;;2.63;;
7076;SDS011;3579;48.956;9.154;2023-02-28T13:51:51;4.83;;;3.00;;
7076;SDS011;3579;48.956;9.154;2023-02-28T14:02:31;3.17;;;2.43;;
7076;SDS011;3579;48.956;9.154;2023-02-28T14:05:20;3.23;;;2.60;;
7076;SDS011;3579;48.956;9.154;2023-02-28T14:07:54;4.13;;;2.60;;
7076;SDS011;3579;48.956;9.154;2023-02-28T14:10:24;5.70;;;2.70;;
7076;SDS011;3579;48.956;9.154;2023-02-28T14:18:23;3.33;;;2.53;;
7076;SDS011;3579;48.956;9.154;2023-02-28T14:21:46;3.47;;;2.90;;
7076;SDS011;3579;48.956;9.154;2023-02-28T14:24:08;4.80;;;2.88;;
7076;SDS011;3579;48.956;9.154;2023-02-28T14:30:15;4.77;;;2.70;;
7076;SDS011;3579;48.956;9.154;2023-02-28T14:35:57;3.47;;;2.60;;
7076;SDS011;3579;48.956;9.154;2023-02-28T14:38:31;3.03;;;2.70;;
7076;SDS011;3579;48.956;9.154;2023-02-28T14:41:00;3.67;;;2.87;;
7076;SDS011;3579;48.956;9.154;2023-02-28T14:43:31;5.53;;;3.50;;
7076;SDS011;3579;48.956;9.154;2023-02-28T14:46:01;4.63;;;3.03;;
7076;SDS011;3579;48.956;9.154;2023-02-28T14:48:29;4.53;;;2.37;;
7076;SDS011;3579;48.956;9.154;2023-02-28T14:50:59;3.13;;;2.50;;
7076;SDS011;3579;48.956;9.154;2023-02-28T14:53:28;7.50;;;5.70;;
7076;SDS011;3579;48.956;9.154;2023-02-28T14:56:00;8.63;;;6.67;;
7076;SDS011;3579;48.956;9.154;2023-02-28T14:58:27;8.40;;;6.00;;
7076;SDS011;3579;48.956;9.154;2023-02-28T15:00:57;9.17;;;5.23;;
7076;SDS011;3579;48.956;9.154;2023-02-28T15:03:37;8.20;;;4.50;;
7076;SDS011;3579;48.956;9.154;2023-02-28T15:06:05;7.47;;;4.20;;
7076;SDS011;3579;48.956;9.154;2023-02-28T15:08:38;5.47;;;3.90;;
7076;SDS011;3579;48.956;9.154;2023-02-28T15:11:05;5.33;;;4.13;;
7076;SDS011;3579;48.956;9.154;2023-02-28T15:14:12;5.23;;;3.70;;
7076;SDS011;3579;48.956;9.154;2023-02-28T15:16:34;6.03;;;3.53;;
7076;SDS011;3579;48.956;9.154;2023-02-28T15:19:08;6.23;;;4.67;;
7076;SDS011;3579;48.956;9.154;2023-02-28T15:22:04;7.60;;;3.93;;
7076;SDS011;3579;48.956;9.154;2023-02-28T15:24:40;7.20;;;3.80;;
7076;SDS011;3579;48.956;9.154;2023-02-28T15:27:13;5.73;;;3.83;;
7076;SDS011;3579;48.956;9.154;2023-02-28T15:29:56;5.20;;;3.47;;
7076;SDS011;3579;48.956;9.154;2023-02-28T15:32:34;4.90;;;3.40;;
7076;SDS011;3579;48.956;9.154;2023-02-28T15:37:47;5.10;;;3.60;;
7076;SDS011;3579;48.956;9.154;2023-02-28T15:41:21;5.33;;;3.30;;
7076;SDS011;3579;48.956;9.154;2023-02-28T15:43:28;4.97;;;3.90;;
7076;SDS011;3579;48.956;9.154;2023-02-28T15:48:28;4.60;;;3.20;;
7076;SDS011;3579;48.956;9.154;2023-02-28T15:50:58;5.83;;;3.10;;
7076;SDS011;3579;48.956;9.154;2023-02-28T15:53:50;4.90;;;3.40;;
7076;SDS011;3579;48.956;9.154;2023-02-28T15:56:23;5.60;;;3.50;;
7076;SDS011;3579;48.956;9.154;2023-02-28T15:58:58;7.10;;;3.30;;
7076;SDS011;3579;48.956;9.154;2023-02-28T16:01:27;7.43;;;3.20;;
7076;SDS011;3579;48.956;9.154;2023-02-28T16:04:03;4.37;;;3.10;;
7076;SDS011;3579;48.956;9.154;2023-02-28T16:09:05;5.97;;;3.30;;
7076;SDS011;3579;48.956;9.154;2023-02-28T16:11:35;5.27;;;3.40;;
7076;SDS011;3579;48.956;9.154;2023-02-28T16:14:14;5.53;;;3.20;;
7076;SDS011;3579;48.956;9.154;2023-02-28T16:16:44;5.73;;;3.23;;
7076;SDS011;3579;48.956;9.154;2023-02-28T16:19:13;9.67;;;3.03;;
7076;SDS011;3579;48.956;9.154;2023-02-28T16:21:39;7.37;;;2.80;;
7076;SDS011;3579;48.956;9.154;2023-02-28T16:24:06;5.77;;;3.00;;
7076;SDS011;3579;48.956;9.154;2023-02-28T16:26:33;6.47;;;2.80;;
7076;SDS011;3579;48.956;9.154;2023-02-28T16:29:01;4.57;;;2.90;;
7076;SDS011;3579;48.956;9.154;2023-02-28T16:31:27;4.30;;;3.17;;
7076;SDS011;3579;48.956;9.154;2023-02-28T16:33:54;5.17;;;3.00;;
7076;SDS011;3579;48.956;9.154;2023-02-28T16:36:21;3.40;;;2.63;;
7076;SDS011;3579;48.956;9.154;2023-02-28T16:38:50;5.37;;;3.00;;
7076;SDS011;3579;48.956;9.154;2023-02-28T16:41:18;5.53;;;3.07;;
7076;SDS011;3579;48.956;9.154;2023-02-28T16:43:47;5.23;;;3.03;;
7076;SDS011;3579;48.956;9.154;2023-02-28T16:46:15;5.00;;;3.00;;
7076;SDS011;3579;48.956;9.154;2023-02-28T16:48:42;4.27;;;2.83;;
7076;SDS011;3579;48.956;9.154;2023-02-28T16:51:13;4.67;;;3.03;;
7076;SDS011;3579;48.956;9.154;2023-02-28T16:53:43;4.17;;;2.77;;
7076;SDS011;3579;48.956;9.154;2023-02-28T16:56:20;5.20;;;2.70;;
7076;SDS011;3579;48.956;9.154;2023-02-28T16:58:48;4.47;;;2.93;;
7076;SDS011;3579;48.956;9.154;2023-02-28T17:01:16;5.67;;;3.27;;
7076;SDS011;3579;48.956;9.154;2023-02-28T17:03:47;4.20;;;2.70;;
7076;SDS011;3579;48.956;9.154;2023-02-28T17:06:19;4.90;;;3.10;;
7076;SDS011;3579;48.956;9.154;2023-02-28T17:08:51;4.83;;;2.97;;
7076;SDS011;3579;48.956;9.154;2023-02-28T17:11:17;5.07;;;2.90;;
7076;SDS011;3579;48.956;9.154;2023-02-28T17:13:44;3.33;;;3.00;;
7076;SDS011;3579;48.956;9.154;2023-02-28T17:16:19;2.77;;;2.20;;
7076;SDS011;3579;48.956;9.154;2023-02-28T17:19:00;5.80;;;2.90;;
7076;SDS011;3579;48.956;9.154;2023-02-28T17:21:28;8.27;;;2.50;;
7076;SDS011;3579;48.956;9.154;2023-02-28T17:23:54;5.47;;;2.90;;
7076;SDS011;3579;48.956;9.154;2023-02-28T17:26:21;8.33;;;3.13;;
7076;SDS011;3579;48.956;9.154;2023-02-28T17:28:50;5.60;;;2.63;;
7076;SDS011;3579;48.956;9.154;2023-02-28T17:31:17;3.07;;;2.40;;
7076;SDS011;3579;48.956;9.154;2023-02-28T17:33:43;3.87;;;2.83;;
7076;SDS011;3579;48.956;9.154;2023-02-28T17:36:12;3.27;;;2.40;;
7076;SDS011;3579;48.956;9.154;2023-02-28T17:38:40;5.47;;;2.63;;
7076;SDS011;3579;48.956;9.154;2023-02-28T17:41:07;3.43;;;2.80;;
7076;SDS011;3579;48.956;9.154;2023-02-28T17:43:35;5.23;;;2.60;;
7076;SDS011;3579;48.956;9.154;2023-02-28T17:46:01;3.07;;;2.70;;
7076;SDS011;3579;48.956;9.154;2023-02-28T17:48:27;3.40;;;2.70;;
7076;SDS011;3579;48.956;9.154;2023-02-28T17:50:54;7.50;;;2.73;;
7076;SDS011;3579;48.956;9.154;2023-02-28T17:53:20;5.00;;;2.67;;
7076;SDS011;3579;48.956;9.154;2023-02-28T17:55:51;4.80;;;2.80;;
7076;SDS011;3579;48.956;9.154;2023-02-28T17:58:17;5.27;;;2.70;;
7076;SDS011;3579;48.956;9.154;2023-02-28T18:00:44;2.77;;;2.50;;
7076;SDS011;3579;48.956;9.154;2023-02-28T18:03:11;3.57;;;2.73;;
7076;SDS011;3579;48.956;9.154;2023-02-28T18:05:38;3.20;;;2.67;;
7076;SDS011;3579;48.956;9.154;2023-02-28T18:08:05;3.23;;;2.80;;